sensor_id;sensor_type;location;lat;lon;timestamp;noise_LAeq;noise_LA_min;noise_LA_max;noise_LA01;noise_LA95
67300;Laerm;57658;51.436;5.980;2024-02-26T00:00:02;33.12;29.80;42.30;;
67300;Laerm;57658;51.436;5.980;2024-02-26T00:00:13;51.99;30.90;67.89;;
67300;Laerm;57658;51.436;5.980;2024-02-26T00:00:24;35.02;29.80;41.31;;
67300;Laerm;57658;51.436;5.980;2024-02-26T00:00:34;40.37;30.34;48.87;;
67300;Laerm;57658;51.436;5.980;2024-02-26T00:00:44;35.79;30.02;44.22;;
67300;Laerm;57658;51.436;5.980;2024-02-26T00:00:56;41.77;32.27;51.49;;
67300;Laerm;57658;51.436;5.980;2024-02-26T00:01:07;41.81;31.61;51.15;;
67300;Laerm;57658;51.436;5.980;2024-02-26T00:01:17;38.29;31.31;44.22;;
67300;Laerm;57658;51.436;5.980;2024-02-26T00:01:27;43.13;32.08;56.10;;
67300;Laerm;57658;51.436;5.980;2024-02-26T00:01:37;43.77;31.02;51.70;;
67300;Laerm;57658;51.436;5.980;2024-02-26T00:01:48;42.26;33.11;50.53;;
67300;Laerm;57658;51.436;5.980;2024-02-26T00:01:58;40.23;30.61;51.85;;
67300;Laerm;57658;51.436;5.980;2024-02-26T00:02:08;36.19;30.40;47.65;;
67300;Laerm;57658;51.436;5.980;2024-02-26T00:02:19;38.71;31.06;47.59;;
67300;Laerm;57658;51.436;5.980;2024-02-26T00:02:29;42.63;31.67;51.93;;
67300;Laerm;57658;51.436;5.980;2024-02-26T00:02:39;48.55;31.47;57.53;;
67300;Laerm;57658;51.436;5.980;2024-02-26T00:02:50;52.87;42.07;64.05;;
67300;Laerm;57658;51.436;5.980;2024-02-26T00:03:01;52.25;36.55;61.09;;
67300;Laerm;57658;51.436;5.980;2024-02-26T00:03:11;41.09;30.70;50.44;;
67300;Laerm;57658;51.436;5.980;2024-02-26T00:03:21;48.02;33.77;59.30;;
67300;Laerm;57658;51.436;5.980;2024-02-26T00:03:32;40.41;30.18;52.15;;
67300;Laerm;57658;51.436;5.980;2024-02-26T00:03:45;42.88;33.04;51.02;;
67300;Laerm;57658;51.436;5.980;2024-02-26T00:03:57;37.17;31.09;50.71;;
67300;Laerm;57658;51.436;5.980;2024-02-26T00:04:10;35.93;29.89;49.86;;
67300;Laerm;57658;51.436;5.980;2024-02-26T00:04:20;36.32;30.03;46.73;;
67300;Laerm;57658;51.436;5.980;2024-02-26T00:04:31;35.07;30.43;44.24;;
67300;Laerm;57658;51.436;5.980;2024-02-26T00:04:42;39.60;30.56;49.75;;
67300;Laerm;57658;51.436;5.980;2024-02-26T00:04:52;39.95;30.04;51.84;;
67300;Laerm;57658;51.436;5.980;2024-02-26T00:05:03;41.52;32.07;51.02;;
67300;Laerm;57658;51.436;5.980;2024-02-26T00:05:13;42.96;31.01;53.68;;
67300;Laerm;57658;51.436;5.980;2024-02-26T00:05:24;34.33;30.68;41.05;;
67300;Laerm;57658;51.436;5.980;2024-02-26T00:05:34;46.04;30.93;60.14;;
67300;Laerm;57658;51.436;5.980;2024-02-26T00:05:45;48.43;34.26;58.15;;
67300;Laerm;57658;51.436;5.980;2024-02-26T00:05:55;42.43;32.22;51.46;;
67300;Laerm;57658;51.436;5.980;2024-02-26T00:06:06;39.48;31.46;49.56;;
67300;Laerm;57658;51.436;5.980;2024-02-26T00:06:16;44.49;31.12;60.28;;
67300;Laerm;57658;51.436;5.980;2024-02-26T00:06:31;40.51;32.54;48.44;;
67300;Laerm;57658;51.436;5.980;2024-02-26T00:06:41;43.14;30.60;54.49;;
67300;Laerm;57658;51.436;5.980;2024-02-26T00:06:51;43.51;30.98;54.61;;
67300;Laerm;57658;51.436;5.980;2024-02-26T00:07:04;38.89;30.27;52.03;;
67300;Laerm;57658;51.436;5.980;2024-02-26T00:07:14;35.97;30.18;46.94;;
67300;Laerm;57658;51.436;5.980;2024-02-26T00:07:24;34.67;30.46;41.68;;
67300;Laerm;57658;51.436;5.980;2024-02-26T00:07:34;33.74;29.75;40.97;;
67300;Laerm;57658;51.436;5.980;2024-02-26T00:07:45;40.56;30.34;51.43;;
67300;Laerm;57658;51.436;5.980;2024-02-26T00:07:55;46.91;32.23;56.43;;
67300;Laerm;57658;51.436;5.980;2024-02-26T00:08:06;45.64;31.46;55.11;;
67300;Laerm;57658;51.436;5.980;2024-02-26T00:08:16;43.53;31.67;54.15;;
67300;Laerm;57658;51.436;5.980;2024-02-26T00:08:26;40.64;31.45;49.67;;
67300;Laerm;57658;51.436;5.980;2024-02-26T00:08:37;41.71;30.47;54.23;;
67300;Laerm;57658;51.436;5.980;2024-02-26T00:08:47;37.01;30.71;45.98;;
67300;Laerm;57658;51.436;5.980;2024-02-26T00:08:57;34.39;30.34;41.82;;
67300;Laerm;57658;51.436;5.980;2024-02-26T00:09:11;33.61;29.94;44.52;;
67300;Laerm;57658;51.436;5.980;2024-02-26T00:09:21;32.44;29.37;39.28;;
67300;Laerm;57658;51.436;5.980;2024-02-26T00:09:31;32.02;29.79;36.95;;
67300;Laerm;57658;51.436;5.980;2024-02-26T00:09:42;31.89;29.52;36.54;;
67300;Laerm;57658;51.436;5.980;2024-02-26T00:09:53;31.15;29.68;33.83;;
67300;Laerm;57658;51.436;5.980;2024-02-26T00:10:03;31.30;29.30;33.88;;
67300;Laerm;57658;51.436;5.980;2024-02-26T00:10:13;33.22;29.70;41.08;;
67300;Laerm;57658;51.436;5.980;2024-02-26T00:10:24;31.64;29.14;35.65;;
67300;Laerm;57658;51.436;5.980;2024-02-26T00:10:34;32.18;29.82;38.04;;
67300;Laerm;57658;51.436;5.980;2024-02-26T00:10:45;31.48;29.23;35.04;;
67300;Laerm;57658;51.436;5.980;2024-02-26T00:10:55;32.61;29.82;38.57;;
67300;Laerm;57658;51.436;5.980;2024-02-26T00:11:05;36.39;29.72;45.05;;
67300;Laerm;57658;51.436;5.980;2024-02-26T00:11:15;36.48;29.41;45.89;;
67300;Laerm;57658;51.436;5.980;2024-02-26T00:11:26;31.59;29.38;37.22;;
67300;Laerm;57658;51.436;5.980;2024-02-26T00:11:36;30.67;29.29;32.70;;
67300;Laerm;57658;51.436;5.980;2024-02-26T00:11:47;30.62;29.45;34.42;;
67300;Laerm;57658;51.436;5.980;2024-02-26T00:11:57;35.34;29.92;45.43;;
67300;Laerm;57658;51.436;5.980;2024-02-26T00:12:09;33.21;28.93;42.93;;
67300;Laerm;57658;51.436;5.980;2024-02-26T00:12:19;39.83;29.77;49.92;;
67300;Laerm;57658;51.436;5.980;2024-02-26T00:12:30;30.94;29.30;33.70;;
67300;Laerm;57658;51.436;5.980;2024-02-26T00:12:40;30.82;29.22;32.23;;
67300;Laerm;57658;51.436;5.980;2024-02-26T00:12:50;38.32;29.95;51.25;;
67300;Laerm;57658;51.436;5.980;2024-02-26T00:13:01;33.04;29.87;42.13;;
67300;Laerm;57658;51.436;5.980;2024-02-26T00:13:11;33.17;29.45;40.87;;
67300;Laerm;57658;51.436;5.980;2024-02-26T00:13:21;31.59;29.37;36.05;;
67300;Laerm;57658;51.436;5.980;2024-02-26T00:13:32;31.58;29.60;36.66;;
67300;Laerm;57658;51.436;5.980;2024-02-26T00:13:42;33.57;29.93;43.66;;
67300;Laerm;57658;51.436;5.980;2024-02-26T00:13:52;33.14;28.78;40.43;;
67300;Laerm;57658;51.436;5.980;2024-02-26T00:14:03;31.35;29.52;35.18;;
67300;Laerm;57658;51.436;5.980;2024-02-26T00:14:13;33.23;29.64;39.50;;
67300;Laerm;57658;51.436;5.980;2024-02-26T00:14:24;31.61;29.67;37.23;;
67300;Laerm;57658;51.436;5.980;2024-02-26T00:14:34;31.78;29.87;37.41;;
67300;Laerm;57658;51.436;5.980;2024-02-26T00:14:44;31.35;29.47;35.34;;
67300;Laerm;57658;51.436;5.980;2024-02-26T00:14:56;31.70;29.47;38.01;;
67300;Laerm;57658;51.436;5.980;2024-02-26T00:15:08;31.53;29.50;36.38;;
67300;Laerm;57658;51.436;5.980;2024-02-26T00:15:19;31.58;29.35;35.02;;
67300;Laerm;57658;51.436;5.980;2024-02-26T00:15:29;36.92;29.54;48.73;;
67300;Laerm;57658;51.436;5.980;2024-02-26T00:15:39;34.92;29.65;44.74;;
67300;Laerm;57658;51.436;5.980;2024-02-26T00:15:49;40.24;31.39;47.55;;
67300;Laerm;57658;51.436;5.980;2024-02-26T00:16:00;40.95;31.39;50.78;;
67300;Laerm;57658;51.436;5.980;2024-02-26T00:16:10;41.87;30.20;51.16;;
67300;Laerm;57658;51.436;5.980;2024-02-26T00:16:20;41.00;29.96;49.75;;
67300;Laerm;57658;51.436;5.980;2024-02-26T00:16:31;34.62;30.59;39.89;;
67300;Laerm;57658;51.436;5.980;2024-02-26T00:16:41;34.93;30.30;43.29;;
67300;Laerm;57658;51.436;5.980;2024-02-26T00:16:52;34.68;30.27;51.63;;
67300;Laerm;57658;51.436;5.980;2024-02-26T00:17:02;31.69;29.91;37.44;;
67300;Laerm;57658;51.436;5.980;2024-02-26T00:17:13;33.68;30.05;43.40;;
67300;Laerm;57658;51.436;5.980;2024-02-26T00:17:23;40.09;30.85;49.49;;
67300;Laerm;57658;51.436;5.980;2024-02-26T00:17:34;38.65;30.30;49.07;;
67300;Laerm;57658;51.436;5.980;2024-02-26T00:17:44;39.31;30.75;49.62;;
67300;Laerm;57658;51.436;5.980;2024-02-26T00:17:55;32.45;29.94;38.53;;
67300;Laerm;57658;51.436;5.980;2024-02-26T00:18:05;31.67;29.54;36.74;;
67300;Laerm;57658;51.436;5.980;2024-02-26T00:18:15;31.36;29.85;33.37;;
67300;Laerm;57658;51.436;5.980;2024-02-26T00:18:25;30.91;29.26;32.70;;
67300;Laerm;57658;51.436;5.980;2024-02-26T00:18:36;31.03;29.56;33.94;;
67300;Laerm;57658;51.436;5.980;2024-02-26T00:18:46;31.38;29.55;35.31;;
67300;Laerm;57658;51.436;5.980;2024-02-26T00:18:56;32.33;30.16;37.21;;
67300;Laerm;57658;51.436;5.980;2024-02-26T00:19:06;31.99;30.06;35.39;;
67300;Laerm;57658;51.436;5.980;2024-02-26T00:19:17;31.50;29.81;34.06;;
67300;Laerm;57658;51.436;5.980;2024-02-26T00:19:27;35.11;30.68;42.46;;
67300;Laerm;57658;51.436;5.980;2024-02-26T00:19:37;31.65;29.75;36.40;;
67300;Laerm;57658;51.436;5.980;2024-02-26T00:19:48;32.13;29.80;38.24;;
67300;Laerm;57658;51.436;5.980;2024-02-26T00:19:58;31.67;29.50;37.10;;
67300;Laerm;57658;51.436;5.980;2024-02-26T00:20:10;31.19;29.49;34.91;;
67300;Laerm;57658;51.436;5.980;2024-02-26T00:20:20;31.24;29.63;36.26;;
67300;Laerm;57658;51.436;5.980;2024-02-26T00:20:30;31.94;29.76;39.95;;
67300;Laerm;57658;51.436;5.980;2024-02-26T00:20:41;33.35;29.79;39.90;;
67300;Laerm;57658;51.436;5.980;2024-02-26T00:20:53;30.94;28.99;33.88;;
67300;Laerm;57658;51.436;5.980;2024-02-26T00:21:04;34.63;29.07;43.36;;
67300;Laerm;57658;51.436;5.980;2024-02-26T00:21:14;35.61;29.54;43.23;;
67300;Laerm;57658;51.436;5.980;2024-02-26T00:21:24;36.29;29.31;44.32;;
67300;Laerm;57658;51.436;5.980;2024-02-26T00:21:34;33.37;29.48;41.44;;
67300;Laerm;57658;51.436;5.980;2024-02-26T00:21:45;31.55;29.46;40.85;;
67300;Laerm;57658;51.436;5.980;2024-02-26T00:21:55;31.83;29.42;39.71;;
67300;Laerm;57658;51.436;5.980;2024-02-26T00:22:05;32.29;29.45;42.28;;
67300;Laerm;57658;51.436;5.980;2024-02-26T00:22:16;32.29;29.66;43.90;;
67300;Laerm;57658;51.436;5.980;2024-02-26T00:22:26;32.82;29.56;41.63;;
67300;Laerm;57658;51.436;5.980;2024-02-26T00:22:38;32.64;28.62;39.56;;
67300;Laerm;57658;51.436;5.980;2024-02-26T00:22:48;34.26;29.11;44.66;;
67300;Laerm;57658;51.436;5.980;2024-02-26T00:22:58;36.42;30.06;42.25;;
67300;Laerm;57658;51.436;5.980;2024-02-26T00:23:09;37.04;29.92;45.27;;
67300;Laerm;57658;51.436;5.980;2024-02-26T00:23:19;33.75;30.34;43.90;;
67300;Laerm;57658;51.436;5.980;2024-02-26T00:23:29;35.27;29.62;48.54;;
67300;Laerm;57658;51.436;5.980;2024-02-26T00:23:39;37.00;29.37;45.38;;
67300;Laerm;57658;51.436;5.980;2024-02-26T00:23:50;44.12;31.48;56.21;;
67300;Laerm;57658;51.436;5.980;2024-02-26T00:24:01;36.87;30.55;44.90;;
67300;Laerm;57658;51.436;5.980;2024-02-26T00:24:11;35.45;30.17;47.26;;
67300;Laerm;57658;51.436;5.980;2024-02-26T00:24:21;42.36;30.35;49.47;;
67300;Laerm;57658;51.436;5.980;2024-02-26T00:24:32;38.68;30.16;46.61;;
67300;Laerm;57658;51.436;5.980;2024-02-26T00:24:42;33.91;29.64;43.59;;
67300;Laerm;57658;51.436;5.980;2024-02-26T00:24:52;32.78;29.93;40.11;;
67300;Laerm;57658;51.436;5.980;2024-02-26T00:25:03;37.95;30.29;49.01;;
67300;Laerm;57658;51.436;5.980;2024-02-26T00:25:13;39.80;31.09;50.42;;
67300;Laerm;57658;51.436;5.980;2024-02-26T00:25:24;37.63;29.61;45.81;;
67300;Laerm;57658;51.436;5.980;2024-02-26T00:25:34;33.51;29.83;40.06;;
67300;Laerm;57658;51.436;5.980;2024-02-26T00:25:46;31.62;29.69;38.67;;
67300;Laerm;57658;51.436;5.980;2024-02-26T00:25:57;40.48;29.70;52.73;;
67300;Laerm;57658;51.436;5.980;2024-02-26T00:26:07;34.66;29.50;44.50;;
67300;Laerm;57658;51.436;5.980;2024-02-26T00:26:18;34.55;29.82;48.58;;
67300;Laerm;57658;51.436;5.980;2024-02-26T00:26:28;37.57;30.12;48.84;;
67300;Laerm;57658;51.436;5.980;2024-02-26T00:26:38;40.13;30.42;48.92;;
67300;Laerm;57658;51.436;5.980;2024-02-26T00:26:49;40.47;29.38;51.88;;
67300;Laerm;57658;51.436;5.980;2024-02-26T00:27:03;42.01;31.02;51.12;;
67300;Laerm;57658;51.436;5.980;2024-02-26T00:27:13;42.64;29.41;53.75;;
67300;Laerm;57658;51.436;5.980;2024-02-26T00:27:23;36.40;30.08;44.59;;
67300;Laerm;57658;51.436;5.980;2024-02-26T00:27:34;37.52;29.69;47.65;;
67300;Laerm;57658;51.436;5.980;2024-02-26T00:27:44;40.13;30.25;57.78;;
67300;Laerm;57658;51.436;5.980;2024-02-26T00:27:54;35.22;30.16;44.82;;
67300;Laerm;57658;51.436;5.980;2024-02-26T00:28:04;34.61;30.07;45.23;;
67300;Laerm;57658;51.436;5.980;2024-02-26T00:28:15;37.20;29.55;46.40;;
67300;Laerm;57658;51.436;5.980;2024-02-26T00:28:25;36.32;29.85;44.38;;
67300;Laerm;57658;51.436;5.980;2024-02-26T00:28:37;37.57;30.40;46.13;;
67300;Laerm;57658;51.436;5.980;2024-02-26T00:28:47;34.52;30.19;42.01;;
67300;Laerm;57658;51.436;5.980;2024-02-26T00:28:58;31.57;29.55;36.96;;
67300;Laerm;57658;51.436;5.980;2024-02-26T00:29:08;33.52;30.05;50.52;;
67300;Laerm;57658;51.436;5.980;2024-02-26T00:29:18;33.51;30.16;41.53;;
67300;Laerm;57658;51.436;5.980;2024-02-26T00:29:29;36.06;30.20;46.38;;
67300;Laerm;57658;51.436;5.980;2024-02-26T00:29:40;35.70;30.49;45.96;;
67300;Laerm;57658;51.436;5.980;2024-02-26T00:29:50;33.24;30.11;43.02;;
67300;Laerm;57658;51.436;5.980;2024-02-26T00:30:00;40.52;31.33;47.39;;
67300;Laerm;57658;51.436;5.980;2024-02-26T00:30:11;39.39;31.03;47.89;;
67300;Laerm;57658;51.436;5.980;2024-02-26T00:30:22;36.75;30.58;48.47;;
67300;Laerm;57658;51.436;5.980;2024-02-26T00:30:33;35.56;30.66;44.24;;
67300;Laerm;57658;51.436;5.980;2024-02-26T00:30:43;41.05;30.69;53.33;;
67300;Laerm;57658;51.436;5.980;2024-02-26T00:30:53;43.63;30.21;54.07;;
67300;Laerm;57658;51.436;5.980;2024-02-26T00:31:06;49.53;30.26;67.41;;
67300;Laerm;57658;51.436;5.980;2024-02-26T00:31:16;39.35;30.50;52.38;;
67300;Laerm;57658;51.436;5.980;2024-02-26T00:31:26;31.88;29.49;40.70;;
67300;Laerm;57658;51.436;5.980;2024-02-26T00:31:37;35.23;30.25;41.55;;
67300;Laerm;57658;51.436;5.980;2024-02-26T00:31:48;38.62;31.07;46.09;;
67300;Laerm;57658;51.436;5.980;2024-02-26T00:31:58;38.41;31.34;46.34;;
67300;Laerm;57658;51.436;5.980;2024-02-26T00:32:09;40.05;30.68;51.80;;
67300;Laerm;57658;51.436;5.980;2024-02-26T00:32:19;37.69;30.34;46.72;;
67300;Laerm;57658;51.436;5.980;2024-02-26T00:32:29;43.04;34.77;51.67;;
67300;Laerm;57658;51.436;5.980;2024-02-26T00:32:39;34.69;30.30;44.80;;
67300;Laerm;57658;51.436;5.980;2024-02-26T00:32:50;38.32;30.08;52.28;;
67300;Laerm;57658;51.436;5.980;2024-02-26T00:33:00;38.16;31.28;45.34;;
67300;Laerm;57658;51.436;5.980;2024-02-26T00:33:10;36.71;31.00;42.87;;
67300;Laerm;57658;51.436;5.980;2024-02-26T00:33:21;44.33;33.19;50.75;;
67300;Laerm;57658;51.436;5.980;2024-02-26T00:33:31;36.82;30.14;47.53;;
67300;Laerm;57658;51.436;5.980;2024-02-26T00:33:41;42.76;31.07;53.88;;
67300;Laerm;57658;51.436;5.980;2024-02-26T00:33:52;44.49;31.73;54.04;;
67300;Laerm;57658;51.436;5.980;2024-02-26T00:34:02;45.47;31.65;54.23;;
67300;Laerm;57658;51.436;5.980;2024-02-26T00:34:13;38.72;30.74;48.37;;
67300;Laerm;57658;51.436;5.980;2024-02-26T00:34:23;43.61;34.10;55.26;;
67300;Laerm;57658;51.436;5.980;2024-02-26T00:34:34;47.70;35.75;55.72;;
67300;Laerm;57658;51.436;5.980;2024-02-26T00:34:44;42.68;30.80;53.65;;
67300;Laerm;57658;51.436;5.980;2024-02-26T00:34:54;39.40;31.59;48.09;;
67300;Laerm;57658;51.436;5.980;2024-02-26T00:35:05;39.59;31.14;52.27;;
67300;Laerm;57658;51.436;5.980;2024-02-26T00:35:15;38.80;29.83;51.65;;
67300;Laerm;57658;51.436;5.980;2024-02-26T00:35:26;43.94;34.49;54.67;;
67300;Laerm;57658;51.436;5.980;2024-02-26T00:35:37;39.33;30.86;47.07;;
67300;Laerm;57658;51.436;5.980;2024-02-26T00:35:47;45.11;30.84;57.97;;
67300;Laerm;57658;51.436;5.980;2024-02-26T00:35:58;50.28;36.92;58.69;;
67300;Laerm;57658;51.436;5.980;2024-02-26T00:36:08;50.12;36.64;59.17;;
67300;Laerm;57658;51.436;5.980;2024-02-26T00:36:19;49.33;33.04;57.90;;
67300;Laerm;57658;51.436;5.980;2024-02-26T00:36:29;42.55;31.08;53.47;;
67300;Laerm;57658;51.436;5.980;2024-02-26T00:36:39;52.89;39.55;62.27;;
67300;Laerm;57658;51.436;5.980;2024-02-26T00:36:49;54.53;43.82;62.42;;
67300;Laerm;57658;51.436;5.980;2024-02-26T00:37:00;50.66;40.59;60.77;;
67300;Laerm;57658;51.436;5.980;2024-02-26T00:37:10;49.02;34.54;60.44;;
67300;Laerm;57658;51.436;5.980;2024-02-26T00:37:20;43.61;34.71;52.76;;
67300;Laerm;57658;51.436;5.980;2024-02-26T00:37:30;39.32;31.75;46.65;;
67300;Laerm;57658;51.436;5.980;2024-02-26T00:37:41;40.96;31.14;54.27;;
67300;Laerm;57658;51.436;5.980;2024-02-26T00:37:53;42.29;31.44;51.19;;
67300;Laerm;57658;51.436;5.980;2024-02-26T00:38:03;39.74;31.54;54.72;;
67300;Laerm;57658;51.436;5.980;2024-02-26T00:38:14;37.72;30.96;47.41;;
67300;Laerm;57658;51.436;5.980;2024-02-26T00:38:24;37.34;31.24;47.00;;
67300;Laerm;57658;51.436;5.980;2024-02-26T00:38:35;44.39;32.64;55.21;;
67300;Laerm;57658;51.436;5.980;2024-02-26T00:38:45;40.27;32.46;54.98;;
67300;Laerm;57658;51.436;5.980;2024-02-26T00:39:00;41.29;31.96;52.26;;
67300;Laerm;57658;51.436;5.980;2024-02-26T00:39:11;43.72;32.24;51.27;;
67300;Laerm;57658;51.436;5.980;2024-02-26T00:39:21;41.93;30.57;53.87;;
67300;Laerm;57658;51.436;5.980;2024-02-26T00:39:31;47.80;32.98;57.69;;
67300;Laerm;57658;51.436;5.980;2024-02-26T00:39:41;55.61;38.04;67.97;;
67300;Laerm;57658;51.436;5.980;2024-02-26T00:39:52;53.26;42.33;62.17;;
67300;Laerm;57658;51.436;5.980;2024-02-26T00:40:04;52.00;38.12;61.00;;
67300;Laerm;57658;51.436;5.980;2024-02-26T00:40:14;45.61;33.24;54.98;;
67300;Laerm;57658;51.436;5.980;2024-02-26T00:40:24;43.02;32.19;50.81;;
67300;Laerm;57658;51.436;5.980;2024-02-26T00:40:35;39.84;32.31;48.84;;
67300;Laerm;57658;51.436;5.980;2024-02-26T00:40:45;36.32;30.60;44.37;;
67300;Laerm;57658;51.436;5.980;2024-02-26T00:40:55;34.21;30.78;41.43;;
67300;Laerm;57658;51.436;5.980;2024-02-26T00:41:06;34.83;30.43;42.63;;
67300;Laerm;57658;51.436;5.980;2024-02-26T00:41:16;34.37;30.14;46.57;;
67300;Laerm;57658;51.436;5.980;2024-02-26T00:41:27;37.02;30.99;47.77;;
67300;Laerm;57658;51.436;5.980;2024-02-26T00:41:40;37.54;29.96;48.36;;
67300;Laerm;57658;51.436;5.980;2024-02-26T00:41:51;42.10;30.75;50.87;;
67300;Laerm;57658;51.436;5.980;2024-02-26T00:42:01;35.38;30.09;46.47;;
67300;Laerm;57658;51.436;5.980;2024-02-26T00:42:12;40.81;31.24;50.78;;
67300;Laerm;57658;51.436;5.980;2024-02-26T00:42:23;34.63;30.01;45.06;;
67300;Laerm;57658;51.436;5.980;2024-02-26T00:42:33;33.20;30.39;42.03;;
67300;Laerm;57658;51.436;5.980;2024-02-26T00:42:43;37.17;30.17;51.70;;
67300;Laerm;57658;51.436;5.980;2024-02-26T00:42:56;48.07;30.91;61.45;;
67300;Laerm;57658;51.436;5.980;2024-02-26T00:43:06;47.22;32.34;53.92;;
67300;Laerm;57658;51.436;5.980;2024-02-26T00:43:16;43.78;30.87;52.96;;
67300;Laerm;57658;51.436;5.980;2024-02-26T00:43:27;42.40;29.80;52.09;;
67300;Laerm;57658;51.436;5.980;2024-02-26T00:43:37;40.09;30.39;49.90;;
67300;Laerm;57658;51.436;5.980;2024-02-26T00:43:49;37.41;29.83;46.93;;
67300;Laerm;57658;51.436;5.980;2024-02-26T00:43:59;38.14;30.89;50.13;;
67300;Laerm;57658;51.436;5.980;2024-02-26T00:44:10;35.43;30.53;43.64;;
67300;Laerm;57658;51.436;5.980;2024-02-26T00:44:21;32.60;29.61;41.19;;
67300;Laerm;57658;51.436;5.980;2024-02-26T00:44:31;33.73;30.21;39.36;;
67300;Laerm;57658;51.436;5.980;2024-02-26T00:44:42;33.07;30.10;39.20;;
67300;Laerm;57658;51.436;5.980;2024-02-26T00:44:52;36.83;30.65;48.38;;
67300;Laerm;57658;51.436;5.980;2024-02-26T00:45:02;40.87;30.15;49.60;;
67300;Laerm;57658;51.436;5.980;2024-02-26T00:45:13;39.96;31.65;50.16;;
67300;Laerm;57658;51.436;5.980;2024-02-26T00:45:23;42.53;33.76;49.78;;
67300;Laerm;57658;51.436;5.980;2024-02-26T00:45:34;44.43;32.43;56.63;;
67300;Laerm;57658;51.436;5.980;2024-02-26T00:45:44;41.18;31.47;51.73;;
67300;Laerm;57658;51.436;5.980;2024-02-26T00:45:56;37.10;30.79;48.38;;
67300;Laerm;57658;51.436;5.980;2024-02-26T00:46:07;39.86;30.48;51.01;;
67300;Laerm;57658;51.436;5.980;2024-02-26T00:46:17;42.13;31.45;50.20;;
67300;Laerm;57658;51.436;5.980;2024-02-26T00:46:27;34.61;30.82;42.52;;
67300;Laerm;57658;51.436;5.980;2024-02-26T00:46:38;33.39;29.46;44.97;;
67300;Laerm;57658;51.436;5.980;2024-02-26T00:46:48;35.80;30.68;54.17;;
67300;Laerm;57658;51.436;5.980;2024-02-26T00:46:58;43.68;33.07;59.08;;
67300;Laerm;57658;51.436;5.980;2024-02-26T00:47:08;40.40;30.61;54.62;;
67300;Laerm;57658;51.436;5.980;2024-02-26T00:47:19;44.05;31.01;53.78;;
67300;Laerm;57658;51.436;5.980;2024-02-26T00:47:29;50.22;34.61;59.70;;
67300;Laerm;57658;51.436;5.980;2024-02-26T00:47:39;48.37;33.44;56.06;;
67300;Laerm;57658;51.436;5.980;2024-02-26T00:47:54;38.75;29.96;52.02;;
67300;Laerm;57658;51.436;5.980;2024-02-26T00:48:04;35.50;29.78;48.12;;
67300;Laerm;57658;51.436;5.980;2024-02-26T00:48:15;43.05;31.35;53.36;;
67300;Laerm;57658;51.436;5.980;2024-02-26T00:48:25;39.84;31.13;52.37;;
67300;Laerm;57658;51.436;5.980;2024-02-26T00:48:36;43.74;31.26;54.17;;
67300;Laerm;57658;51.436;5.980;2024-02-26T00:48:47;44.37;32.13;53.19;;
67300;Laerm;57658;51.436;5.980;2024-02-26T00:48:57;41.84;30.72;52.90;;
67300;Laerm;57658;51.436;5.980;2024-02-26T00:49:07;36.19;30.45;43.37;;
67300;Laerm;57658;51.436;5.980;2024-02-26T00:49:18;39.35;30.29;50.26;;
67300;Laerm;57658;51.436;5.980;2024-02-26T00:49:28;40.04;30.97;47.34;;
67300;Laerm;57658;51.436;5.980;2024-02-26T00:49:38;38.03;31.01;50.66;;
67300;Laerm;57658;51.436;5.980;2024-02-26T00:49:48;33.33;30.67;42.18;;
67300;Laerm;57658;51.436;5.980;2024-02-26T00:49:59;34.32;30.34;42.37;;
67300;Laerm;57658;51.436;5.980;2024-02-26T00:50:09;35.62;30.51;45.42;;
67300;Laerm;57658;51.436;5.980;2024-02-26T00:50:19;40.71;31.05;50.81;;
67300;Laerm;57658;51.436;5.980;2024-02-26T00:50:30;40.87;30.52;49.97;;
67300;Laerm;57658;51.436;5.980;2024-02-26T00:50:40;36.38;30.31;47.32;;
67300;Laerm;57658;51.436;5.980;2024-02-26T00:50:51;33.78;30.45;43.38;;
67300;Laerm;57658;51.436;5.980;2024-02-26T00:51:01;32.16;30.28;36.57;;
67300;Laerm;57658;51.436;5.980;2024-02-26T00:51:12;37.14;30.10;47.65;;
67300;Laerm;57658;51.436;5.980;2024-02-26T00:51:22;39.41;32.04;47.43;;
67300;Laerm;57658;51.436;5.980;2024-02-26T00:51:32;37.76;30.96;48.39;;
67300;Laerm;57658;51.436;5.980;2024-02-26T00:51:42;42.61;30.58;51.45;;
67300;Laerm;57658;51.436;5.980;2024-02-26T00:51:53;40.68;30.60;48.52;;
67300;Laerm;57658;51.436;5.980;2024-02-26T00:52:03;38.97;31.48;48.92;;
67300;Laerm;57658;51.436;5.980;2024-02-26T00:52:13;38.83;32.10;52.31;;
67300;Laerm;57658;51.436;5.980;2024-02-26T00:52:24;38.04;31.00;45.42;;
67300;Laerm;57658;51.436;5.980;2024-02-26T00:52:34;36.41;30.37;46.88;;
67300;Laerm;57658;51.436;5.980;2024-02-26T00:52:44;46.24;31.39;57.87;;
67300;Laerm;57658;51.436;5.980;2024-02-26T00:52:55;41.56;31.84;52.31;;
67300;Laerm;57658;51.436;5.980;2024-02-26T00:53:05;45.10;32.06;54.50;;
67300;Laerm;57658;51.436;5.980;2024-02-26T00:53:15;49.32;31.07;61.83;;
67300;Laerm;57658;51.436;5.980;2024-02-26T00:53:25;38.76;31.70;48.88;;
67300;Laerm;57658;51.436;5.980;2024-02-26T00:53:36;43.47;33.24;53.89;;
67300;Laerm;57658;51.436;5.980;2024-02-26T00:53:46;52.11;41.65;60.68;;
67300;Laerm;57658;51.436;5.980;2024-02-26T00:53:56;47.13;35.90;55.47;;
67300;Laerm;57658;51.436;5.980;2024-02-26T00:54:07;46.14;35.93;52.93;;
67300;Laerm;57658;51.436;5.980;2024-02-26T00:54:17;38.75;30.95;50.66;;
67300;Laerm;57658;51.436;5.980;2024-02-26T00:54:27;37.97;30.61;48.10;;
67300;Laerm;57658;51.436;5.980;2024-02-26T00:54:37;43.16;31.01;54.35;;
67300;Laerm;57658;51.436;5.980;2024-02-26T00:54:48;43.03;33.48;54.27;;
67300;Laerm;57658;51.436;5.980;2024-02-26T00:54:58;49.55;32.09;62.13;;
67300;Laerm;57658;51.436;5.980;2024-02-26T00:55:08;49.55;31.59;58.99;;
67300;Laerm;57658;51.436;5.980;2024-02-26T00:55:19;43.78;30.45;54.97;;
67300;Laerm;57658;51.436;5.980;2024-02-26T00:55:29;40.00;30.87;49.67;;
67300;Laerm;57658;51.436;5.980;2024-02-26T00:55:39;38.67;31.98;52.35;;
67300;Laerm;57658;51.436;5.980;2024-02-26T00:55:49;47.90;35.10;57.58;;
67300;Laerm;57658;51.436;5.980;2024-02-26T00:56:00;49.90;34.68;57.84;;
67300;Laerm;57658;51.436;5.980;2024-02-26T00:56:10;51.29;37.95;59.68;;
67300;Laerm;57658;51.436;5.980;2024-02-26T00:56:21;54.41;41.80;60.82;;
67300;Laerm;57658;51.436;5.980;2024-02-26T00:56:31;50.06;32.47;61.59;;
67300;Laerm;57658;51.436;5.980;2024-02-26T00:56:42;44.20;33.57;56.02;;
67300;Laerm;57658;51.436;5.980;2024-02-26T00:56:52;44.14;32.70;57.73;;
67300;Laerm;57658;51.436;5.980;2024-02-26T00:57:02;40.86;30.87;53.64;;
67300;Laerm;57658;51.436;5.980;2024-02-26T00:57:13;36.25;30.22;45.73;;
67300;Laerm;57658;51.436;5.980;2024-02-26T00:57:23;42.50;32.65;52.94;;
67300;Laerm;57658;51.436;5.980;2024-02-26T00:57:34;35.28;31.07;44.88;;
67300;Laerm;57658;51.436;5.980;2024-02-26T00:57:44;47.60;30.55;61.35;;
67300;Laerm;57658;51.436;5.980;2024-02-26T00:57:55;47.94;34.60;57.65;;
67300;Laerm;57658;51.436;5.980;2024-02-26T00:58:05;43.60;32.64;51.97;;
67300;Laerm;57658;51.436;5.980;2024-02-26T00:58:16;40.13;30.74;56.79;;
67300;Laerm;57658;51.436;5.980;2024-02-26T00:58:26;45.11;30.57;61.46;;
67300;Laerm;57658;51.436;5.980;2024-02-26T00:58:37;50.91;39.11;58.63;;
67300;Laerm;57658;51.436;5.980;2024-02-26T00:58:47;51.76;38.56;62.24;;
67300;Laerm;57658;51.436;5.980;2024-02-26T00:58:58;40.31;30.86;52.48;;